Satellite Beach, Florida
Current Conditions -  °F | °C
As of 9:58 AM on Monday 24 Nov 2014 (Local Time) from KCOF Reporting Station
Scattered Clouds Scattered Clouds  
Wind Chill: 76°   Ceiling: Unl
Heat Index: 76°   Visibility: 10mi
Dew Point: 75°   Wind: 10mph
Humidity: 96%   Direction: 210°SSW
Pressure: 30"   Gusts: NA
Location:  28.17°N, 80.6°W
Report Text: KCOF 241458Z AUTO 21009KT 10SM SCT008 25/24 A3000 RMK AO2 SLP163 T02470241 52010
Loading
Personal Weather Stations






























Interactive Weather Map New forecast layout! Learn more

10-Day Weather Forecast

Advertisements
Track Severe Weather on mobile